Dalmeny, Canada
Current Conditions -  °F | °C
As of 6:00 AM on Monday 24 Nov 2014 (Local Time) from CYXE Reporting Station
Light Fog Light Fog  
Wind Chill: -21°   Ceiling: 7000
Heat Index: -14°   Visibility: 10mi
Dew Point: -15°   Wind: 8mph
Humidity: 92%   Direction: 220°SW
Pressure: 29.88"   Gusts: NA
Location:  52.33°N, 106.78°W
Report Text: CYXE 241200Z 22007KT 10SM PRFG SCT006 OVC070 M14/M15 A2988 RMK ST3AC5 SLP159
Loading
Personal Weather Stations






























Interactive Weather Map New forecast layout! Learn more

10-Day Weather Forecast

Advertisements
Track Severe Weather on mobile